Time;durP1;ratioP1;P1;durP2;ratioP2;P2;SDS_P1;SDS_P2;PMS_P1;PMS_P2;Temp;Humidity;BMP_temperature;BMP_pressure;BME280_temperature;BME280_humidity;BME280_pressure;Samples;Min_cycle;Max_cycle;Signal;HPM_P1;HPM_P2
2022/02/01 00:00:44;;;;;;;1.00;0.40;;;4.80;16.20;;;;;;5135556;28;20409;-53
2022/02/01 00:03:13;;;;;;;0.90;0.50;;;4.70;25.30;;;;;;5136010;28;20501;-55
2022/02/01 00:05:46;;;;;;;0.68;0.30;;;4.60;9.90;;;;;;5135504;28;20462;-57
2022/02/01 00:08:19;;;;;;;0.70;0.30;;;4.70;25.70;;;;;;5135746;28;20415;-56
2022/02/01 00:10:56;;;;;;;0.90;0.30;;;4.70;32.00;;;;;;5135722;28;20829;-56
2022/02/01 00:13:35;;;;;;;0.70;0.30;;;4.70;24.40;;;;;;5135629;28;20441;-55
2022/02/01 00:16:41;;;;;;;1.38;0.40;;;4.70;29.90;;;;;;5135580;28;20486;-54
2022/02/01 00:35:57;;;;;;;0.70;0.20;;;4.60;45.90;;;;;;5090120;28;20738;-52
2022/02/01 00:38:28;;;;;;;0.63;0.20;;;4.60;46.20;;;;;;5089644;28;20508;-55
2022/02/01 00:41:02;;;;;;;0.50;0.30;;;4.60;38.00;;;;;;5101257;28;20428;-54
2022/02/01 00:43:30;;;;;;;0.43;0.20;;;4.60;23.20;;;;;;5113145;28;20426;-55
2022/02/01 00:46:00;;;;;;;0.40;0.20;;;4.50;46.70;;;;;;5113448;28;20466;-55
2022/02/01 00:48:27;;;;;;;0.40;0.20;;;4.60;44.20;;;;;;5113142;28;20416;-56
2022/02/01 00:50:54;;;;;;;0.80;0.20;;;4.70;39.80;;;;;;5111891;28;20444;-57
2022/02/01 00:53:26;;;;;;;0.60;0.30;;;4.70;28.20;;;;;;5112541;28;20508;-55
2022/02/01 00:55:53;;;;;;;0.50;0.20;;;4.60;40.70;;;;;;5113701;28;20432;-56
2022/02/01 00:58:20;;;;;;;0.50;0.20;;;4.40;72.30;;;;;;5117213;28;20415;-54
2022/02/01 01:00:47;;;;;;;2.13;0.20;;;4.40;99.90;;;;;;5118791;28;20507;-57
2022/02/01 01:03:15;;;;;;;0.68;0.20;;;4.40;99.90;;;;;;5117683;28;20519;-56
2022/02/01 01:05:42;;;;;;;1.00;0.27;;;4.20;90.20;;;;;;5117328;28;20591;-56
2022/02/01 01:08:09;;;;;;;0.40;0.20;;;4.10;99.90;;;;;;5117047;28;20533;-55
2022/02/01 01:10:36;;;;;;;0.50;0.30;;;4.00;99.90;;;;;;5116354;28;20518;-55
2022/02/01 01:13:14;;;;;;;1.38;0.30;;;4.00;99.90;;;;;;5116717;28;20512;-54
2022/02/01 01:15:49;;;;;;;2.17;0.30;;;4.00;99.90;;;;;;5116592;28;20460;-55
2022/02/01 01:18:49;;;;;;;1.10;0.30;;;4.00;99.90;;;;;;5116983;28;20423;-54
2022/02/01 01:43:37;;;;;;;1.10;0.30;;;4.40;49.40;;;;;;5136749;27;20397;-51
2022/02/01 01:46:27;;;;;;;1.77;0.30;;;4.40;43.40;;;;;;5137316;27;20426;-56
2022/02/01 01:54:28;;;;;;;1.40;0.30;;;4.40;51.60;;;;;;5136113;27;20552;-55
2022/02/01 01:56:57;;;;;;;1.50;0.50;;;4.50;53.60;;;;;;5136112;27;20505;-54
2022/02/01 01:59:26;;;;;;;2.20;0.40;;;4.50;39.80;;;;;;5136243;27;20483;-54
2022/02/01 02:01:54;;;;;;;1.40;0.40;;;4.40;41.10;;;;;;5136662;27;20521;-54
2022/02/01 02:04:20;;;;;;;1.05;0.30;;;4.50;63.50;;;;;;5137107;27;20510;-55
2022/02/01 02:06:49;;;;;;;1.70;0.40;;;4.60;53.10;;;;;;5137227;27;20841;-56
2022/02/01 02:09:16;;;;;;;1.10;0.30;;;4.60;53.10;;;;;;5135875;27;20471;-53
2022/02/01 02:11:44;;;;;;;2.00;0.40;;;4.60;27.20;;;;;;5136870;27;20849;-57
2022/02/01 02:14:18;;;;;;;1.80;0.40;;;4.60;31.70;;;;;;5137827;27;20513;-53
2022/02/01 02:16:46;;;;;;;1.30;0.50;;;4.60;30.80;;;;;;5138238;27;20422;-56
2022/02/01 02:19:13;;;;;;;1.33;0.30;;;4.40;45.30;;;;;;5137647;27;20442;-55
2022/02/01 02:21:46;;;;;;;0.90;0.30;;;4.40;83.10;;;;;;5137451;27;20805;-50
2022/02/01 02:24:14;;;;;;;1.38;0.30;;;4.40;88.60;;;;;;5136097;27;20411;-53
2022/02/01 02:26:42;;;;;;;1.70;0.40;;;4.50;69.70;;;;;;5135439;27;20800;-54
2022/02/01 02:29:09;;;;;;;1.95;0.40;;;4.50;55.70;;;;;;5135085;27;20418;-51
2022/02/01 02:31:38;;;;;;;2.25;0.30;;;4.50;69.20;;;;;;5135735;27;20514;-54
2022/02/01 02:34:08;;;;;;;0.60;0.30;;;4.30;78.30;;;;;;5136572;27;20796;-55
2022/02/01 02:36:39;;;;;;;1.60;0.40;;;4.40;93.20;;;;;;5137099;27;20446;-56
2022/02/01 02:39:11;;;;;;;1.50;0.40;;;4.40;95.30;;;;;;5136705;27;20450;-56
2022/02/01 02:41:49;;;;;;;2.60;0.40;;;4.40;99.90;;;;;;5136889;27;20546;-55
2022/02/01 02:47:02;;;;;;;1.10;0.30;;;4.50;83.30;;;;;;5136522;27;20543;-54
2022/02/01 02:49:29;;;;;;;1.03;0.33;;;4.40;83.70;;;;;;5136391;27;20414;-56
2022/02/01 02:51:56;;;;;;;2.45;0.38;;;4.40;97.10;;;;;;5136934;27;20422;-55
2022/02/01 02:54:26;;;;;;;1.13;0.40;;;4.50;89.70;;;;;;5135235;27;20424;-54
2022/02/01 02:56:55;;;;;;;2.15;0.40;;;4.60;84.30;;;;;;5133438;27;20516;-55
2022/02/01 02:59:23;;;;;;;1.00;0.40;;;4.70;45.30;;;;;;5134658;27;20505;-52
2022/02/01 03:01:51;;;;;;;2.17;0.32;;;4.60;34.60;;;;;;5134486;27;20516;-54
2022/02/01 03:04:20;;;;;;;2.38;0.50;;;4.50;26.50;;;;;;5135142;27;20421;-55
2022/02/01 03:06:47;;;;;;;2.40;0.40;;;4.50;52.80;;;;;;5135000;27;20797;-53
2022/02/01 03:09:15;;;;;;;1.10;0.40;;;4.40;46.20;;;;;;5134627;27;20824;-55
2022/02/01 03:11:44;;;;;;;2.53;0.40;;;4.30;43.30;;;;;;5135974;27;20779;-56
2022/02/01 03:14:22;;;;;;;1.25;0.30;;;4.30;61.10;;;;;;5136365;27;20426;-54
2022/02/01 03:16:57;;;;;;;0.60;0.30;;;4.30;61.00;;;;;;5136793;27;20897;-55
2022/02/01 03:22:14;;;;;;;1.80;0.40;;;4.30;38.60;;;;;;5125230;27;20414;-51
2022/02/01 03:24:41;;;;;;;1.30;0.40;;;4.40;23.00;;;;;;5136458;27;20792;-53
2022/02/01 03:27:09;;;;;;;1.50;0.50;;;4.30;1.00;;;;;;5136727;27;20509;-51
2022/02/01 03:29:36;;;;;;;1.73;0.40;;;4.30;1.00;;;;;;5136339;27;20502;-54
2022/02/01 03:32:03;;;;;;;2.42;0.47;;;4.30;1.00;;;;;;5136116;27;20905;-54
2022/02/01 03:34:30;;;;;;;2.20;0.30;;;4.30;1.00;;;;;;5136129;27;20494;-51
2022/02/01 03:36:56;;;;;;;2.63;0.40;;;4.20;23.50;;;;;;5136580;27;20497;-53
2022/02/01 03:39:23;;;;;;;1.70;0.40;;;4.30;53.70;;;;;;5135708;27;20513;-54
2022/02/01 03:41:51;;;;;;;1.75;0.40;;;4.30;44.60;;;;;;5135637;27;20450;-53
2022/02/01 03:44:20;;;;;;;3.50;0.40;;;4.40;47.00;;;;;;5135817;27;20497;-56
2022/02/01 03:46:58;;;;;;;1.60;0.40;;;4.40;47.00;;;;;;5134747;27;20434;-55
2022/02/01 03:49:25;;;;;;;0.88;0.30;;;4.30;2.50;;;;;;5134600;27;20486;-54
2022/02/01 03:51:52;;;;;;;1.30;0.50;;;4.20;9.50;;;;;;5135943;27;20505;-54
2022/02/01 03:54:18;;;;;;;1.42;0.40;;;4.20;38.30;;;;;;5135817;28;20417;-57
2022/02/01 03:56:45;;;;;;;3.75;0.40;;;4.20;19.20;;;;;;5135789;28;20521;-55
2022/02/01 03:59:12;;;;;;;2.25;0.40;;;4.20;24.60;;;;;;5135626;28;20497;-56
2022/02/01 04:01:40;;;;;;;3.60;0.52;;;4.20;12.70;;;;;;5135804;28;20418;-53
2022/02/01 04:04:07;;;;;;;1.10;0.30;;;4.30;36.00;;;;;;5135971;28;20417;-55
2022/02/01 04:06:34;;;;;;;1.45;0.50;;;4.20;5.50;;;;;;5136260;28;20533;-54
2022/02/01 04:09:01;;;;;;;1.70;0.50;;;4.20;16.30;;;;;;5135687;28;20510;-56
2022/02/01 04:11:27;;;;;;;3.00;0.40;;;4.40;12.60;;;;;;5135611;28;20457;-57
2022/02/01 04:13:54;;;;;;;3.00;0.40;;;4.40;11.90;;;;;;5135859;28;20450;-52
2022/02/01 04:16:21;;;;;;;2.80;0.30;;;4.50;1.00;;;;;;5135627;28;20466;-54
2022/02/01 04:18:49;;;;;;;2.10;0.40;;;4.50;1.00;;;;;;5135830;28;20497;-54
2022/02/01 04:21:16;;;;;;;1.20;0.30;;;4.40;1.00;;;;;;5134793;27;20475;-56
2022/02/01 04:23:43;;;;;;;2.17;0.40;;;4.40;1.00;;;;;;5134979;28;20437;-56
2022/02/01 04:26:10;;;;;;;1.67;0.40;;;4.30;1.00;;;;;;5135679;28;20862;-55
2022/02/01 04:28:37;;;;;;;3.50;0.40;;;4.30;1.00;;;;;;5135875;28;20781;-55
2022/02/01 04:31:04;;;;;;;3.10;0.40;;;4.30;1.00;;;;;;5134546;28;20685;-54
2022/02/01 04:33:30;;;;;;;3.55;0.50;;;4.30;1.00;;;;;;5136558;27;20506;-56
2022/02/01 04:35:59;;;;;;;2.13;0.32;;;4.30;1.00;;;;;;5137919;27;20528;-56
2022/02/01 04:38:26;;;;;;;2.70;0.40;;;4.20;1.00;;;;;;5137500;27;20534;-56
2022/02/01 04:40:54;;;;;;;2.20;0.45;;;4.10;1.00;;;;;;5137429;27;20429;-56
2022/02/01 04:43:21;;;;;;;1.30;0.30;;;4.10;1.00;;;;;;5137496;27;20859;-58
2022/02/01 04:45:48;;;;;;;1.65;0.47;;;4.00;3.70;;;;;;5138640;27;20425;-52
2022/02/01 04:48:15;;;;;;;3.03;0.40;;;4.00;1.00;;;;;;5139237;27;20448;-54
2022/02/01 04:50:42;;;;;;;1.87;0.50;;;4.00;1.00;;;;;;5139504;27;20450;-54
2022/02/01 04:53:10;;;;;;;3.17;0.70;;;4.30;1.00;;;;;;5139027;27;20432;-53
2022/02/01 04:55:52;;;;;;;1.20;0.40;;;4.20;1.00;;;;;;5138965;27;20462;-53
2022/02/01 04:58:19;;;;;;;3.05;0.40;;;4.20;1.00;;;;;;5138787;27;20422;-53
2022/02/01 05:00:46;;;;;;;2.20;0.40;;;4.30;1.00;;;;;;5138577;27;20768;-55
2022/02/01 05:03:13;;;;;;;2.00;0.30;;;4.30;1.00;;;;;;5138217;27;20508;-50
2022/02/01 05:05:40;;;;;;;2.00;0.30;;;4.30;1.00;;;;;;5138475;27;20475;-55
2022/02/01 05:08:09;;;;;;;1.40;0.33;;;4.40;1.00;;;;;;5138451;27;20458;-54
2022/02/01 05:10:39;;;;;;;3.25;0.43;;;4.20;1.00;;;;;;5138245;27;20786;-56
2022/02/01 05:13:36;;;;;;;1.90;0.40;;;4.20;1.00;;;;;;5138005;27;20414;-56
2022/02/01 05:16:07;;;;;;;1.50;0.40;;;4.20;1.00;;;;;;5138092;27;20435;-57
2022/02/01 05:18:44;;;;;;;4.10;0.40;;;4.20;1.00;;;;;;5137626;27;20418;-56
2022/02/01 05:21:13;;;;;;;3.00;0.50;;;4.20;1.00;;;;;;5138156;27;20426;-55
2022/02/01 05:23:40;;;;;;;0.98;0.30;;;4.30;1.00;;;;;;5138680;27;20464;-55
2022/02/01 05:26:08;;;;;;;1.60;0.40;;;4.30;1.00;;;;;;5138111;27;20476;-54
2022/02/01 05:28:37;;;;;;;2.25;0.30;;;4.20;1.00;;;;;;5138354;27;20449;-56
2022/02/01 05:31:04;;;;;;;1.60;0.40;;;4.10;1.00;;;;;;5138383;27;20539;-56
2022/02/01 05:33:31;;;;;;;2.38;0.40;;;4.20;1.00;;;;;;5138000;27;20509;-54
2022/02/01 05:36:00;;;;;;;4.10;0.30;;;4.20;1.00;;;;;;5138224;27;20525;-55
2022/02/01 05:38:27;;;;;;;2.63;0.40;;;4.00;1.00;;;;;;5137798;27;20418;-56
2022/02/01 05:40:54;;;;;;;2.65;0.40;;;4.00;1.00;;;;;;5137582;27;20912;-54
2022/02/01 05:43:24;;;;;;;2.75;0.50;;;4.10;1.00;;;;;;5136380;27;20499;-56
2022/02/01 05:45:51;;;;;;;2.00;0.40;;;4.10;1.00;;;;;;5136950;27;20479;-56
2022/02/01 05:48:19;;;;;;;2.03;0.50;;;4.20;1.00;;;;;;5138162;27;20481;-54
2022/02/01 05:50:49;;;;;;;3.10;0.40;;;4.10;99.90;;;;;;5137559;27;20865;-56
2022/02/01 05:53:16;;;;;;;1.00;0.32;;;4.00;99.90;;;;;;5137307;27;20421;-54
2022/02/01 05:55:46;;;;;;;3.00;0.40;;;4.00;1.00;;;;;;5136928;27;20526;-55
2022/02/01 05:58:14;;;;;;;1.40;0.30;;;4.10;1.00;;;;;;5137125;27;20422;-55
2022/02/01 06:00:42;;;;;;;3.10;0.40;;;4.10;1.00;;;;;;5137525;27;20837;-54
2022/02/01 06:03:09;;;;;;;1.80;0.35;;;4.20;1.00;;;;;;5137367;27;20415;-55
2022/02/01 06:05:36;;;;;;;1.95;0.40;;;4.20;19.40;;;;;;5137866;27;20509;-57
2022/02/01 06:08:03;;;;;;;1.40;0.30;;;4.20;1.00;;;;;;5137424;27;20410;-56
2022/02/01 06:10:30;;;;;;;1.85;0.40;;;4.20;1.00;;;;;;5136731;27;20513;-54
2022/02/01 06:12:57;;;;;;;2.85;0.60;;;4.30;1.00;;;;;;5137338;27;20501;-54
2022/02/01 06:15:26;;;;;;;1.30;0.50;;;4.60;1.00;;;;;;5137499;27;20859;-54
2022/02/01 06:17:54;;;;;;;2.30;0.40;;;4.80;1.00;;;;;;5135596;27;20797;-55
2022/02/01 06:20:23;;;;;;;2.80;0.40;;;4.60;1.00;;;;;;5133698;27;20628;-54
2022/02/01 06:22:50;;;;;;;1.67;0.30;;;4.60;99.90;;;;;;5133821;27;20421;-54
2022/02/01 06:25:34;;;;;;;1.77;0.30;;;4.80;99.90;;;;;;5134263;27;20848;-54
2022/02/01 06:28:01;;;;;;;1.50;0.40;;;4.90;21.60;;;;;;5134911;27;20914;-54
2022/02/01 06:30:28;;;;;;;1.50;0.40;;;5.10;99.90;;;;;;5133680;27;20432;-58
2022/02/01 06:32:59;;;;;;;2.90;0.40;;;5.20;99.90;;;;;;5132090;27;20443;-57
2022/02/01 06:35:27;;;;;;;2.92;0.40;;;5.20;99.90;;;;;;5132973;27;20568;-56
2022/02/01 06:37:54;;;;;;;1.50;0.30;;;4.90;1.00;;;;;;5119480;27;20422;-57
2022/02/01 06:40:21;;;;;;;2.97;0.30;;;4.70;99.90;;;;;;5119448;27;20434;-56
2022/02/01 06:42:48;;;;;;;2.65;0.50;;;4.60;1.00;;;;;;5119182;27;20425;-57
2022/02/01 06:45:16;;;;;;;1.53;0.40;;;4.60;1.00;;;;;;5121554;27;20439;-53
2022/02/01 06:47:43;;;;;;;2.60;0.40;;;4.80;1.00;;;;;;5119833;27;20513;-54
2022/02/01 06:50:12;;;;;;;1.80;0.40;;;5.10;99.90;;;;;;5133016;27;20484;-58
2022/02/01 06:52:39;;;;;;;1.80;0.40;;;5.00;1.00;;;;;;5125518;27;20424;-56
2022/02/01 06:55:09;;;;;;;1.40;0.50;;;4.60;99.90;;;;;;5127665;27;20914;-57
2022/02/01 06:57:37;;;;;;;2.20;0.50;;;4.40;1.00;;;;;;5112834;27;20428;-55
2022/02/01 07:00:05;;;;;;;3.50;0.40;;;4.10;1.00;;;;;;5128172;27;20859;-57
2022/02/01 07:02:32;;;;;;;1.73;0.40;;;3.90;1.00;;;;;;5118735;27;20423;-57
2022/02/01 07:05:00;;;;;;;2.95;0.50;;;3.80;99.90;;;;;;5128629;27;20514;-57
2022/02/01 07:07:28;;;;;;;2.03;0.30;;;3.70;99.90;;;;;;5113544;27;20420;-56
2022/02/01 07:09:55;;;;;;;1.40;0.43;;;3.60;99.90;;;;;;5128217;27;20601;-54
2022/02/01 07:12:22;;;;;;;1.73;0.40;;;3.80;1.00;;;;;;5124819;27;20418;-57
2022/02/01 07:14:49;;;;;;;2.90;0.40;;;3.90;1.00;;;;;;5132380;27;20846;-56
2022/02/01 07:17:16;;;;;;;2.90;0.40;;;3.90;96.70;;;;;;5131247;27;20521;-58
2022/02/01 07:19:43;;;;;;;2.00;0.50;;;3.70;99.90;;;;;;5117868;27;20513;-57
2022/02/01 07:22:10;;;;;;;2.90;0.50;;;3.60;1.00;;;;;;5132393;27;20437;-57
2022/02/01 07:24:51;;;;;;;3.30;0.50;;;3.60;99.90;;;;;;5127604;27;20419;-58
2022/02/01 07:27:37;;;;;;;2.03;0.30;;;3.50;1.00;;;;;;5125618;27;20429;-58
2022/02/01 07:30:07;;;;;;;2.50;0.40;;;3.80;1.00;;;;;;5121799;27;20427;-58
2022/02/01 07:32:35;;;;;;;1.90;0.50;;;3.80;36.80;;;;;;5122793;27;20491;-57
2022/02/01 07:35:02;;;;;;;3.25;0.40;;;3.80;99.90;;;;;;5127705;27;20784;-60
2022/02/01 07:37:29;;;;;;;2.67;0.80;;;3.80;99.90;;;;;;5131313;27;20682;-58
2022/02/01 07:39:57;;;;;;;2.42;0.40;;;4.00;1.00;;;;;;5126008;27;20434;-58
2022/02/01 07:42:24;;;;;;;3.00;0.40;;;4.20;1.00;;;;;;5147101;27;20519;-57
2022/02/01 07:44:51;;;;;;;4.70;0.40;;;4.10;2.90;;;;;;5151667;27;20739;-56
2022/02/01 07:47:21;;;;;;;3.28;0.50;;;4.00;99.90;;;;;;5150225;27;20504;-58
2022/02/01 07:49:49;;;;;;;2.80;0.90;;;3.90;99.90;;;;;;5123518;27;20936;-59
2022/02/01 07:52:16;;;;;;;1.77;0.40;;;3.90;99.90;;;;;;5141959;27;20421;-56
2022/02/01 07:54:43;;;;;;;1.90;0.30;;;3.90;67.00;;;;;;5153058;27;20851;-56
2022/02/01 07:57:12;;;;;;;1.08;0.40;;;3.90;98.80;;;;;;5151587;27;20515;-58
2022/02/01 07:59:39;;;;;;;1.13;0.50;;;3.90;99.90;;;;;;5152940;27;20508;-58
2022/02/01 08:02:16;;;;;;;1.63;0.40;;;3.80;1.00;;;;;;5151377;27;20465;-58
2022/02/01 08:04:43;;;;;;;1.50;0.40;;;3.70;99.90;;;;;;5142774;27;20417;-59
2022/02/01 08:07:10;;;;;;;1.60;0.40;;;3.70;1.00;;;;;;5149729;27;20584;-59
2022/02/01 08:09:43;;;;;;;2.55;0.40;;;3.60;1.00;;;;;;5150347;27;20448;-58
2022/02/01 08:12:27;;;;;;;2.10;0.30;;;3.60;1.00;;;;;;5151680;27;20435;-57
2022/02/01 08:17:43;;;;;;;1.00;0.40;;;3.60;1.00;;;;;;5148963;27;20413;-58
2022/02/01 08:20:13;;;;;;;1.08;0.30;;;3.60;1.00;;;;;;5155237;27;20432;-60
2022/02/01 08:23:00;;;;;;;1.83;0.40;;;3.60;1.00;;;;;;5156286;27;20420;-56
2022/02/01 08:25:27;;;;;;;3.43;0.47;;;3.60;1.00;;;;;;5155788;27;20428;-58
2022/02/01 08:27:58;;;;;;;1.30;0.60;;;3.70;99.90;;;;;;5154325;27;20504;-58
2022/02/01 08:30:25;;;;;;;2.17;0.40;;;4.00;1.00;;;;;;5154386;27;20843;-58
2022/02/01 08:32:54;;;;;;;3.00;0.40;;;4.20;99.90;;;;;;5157186;27;20423;-58
2022/02/01 08:35:21;;;;;;;1.00;0.40;;;4.40;99.90;;;;;;5156497;27;20514;-58
2022/02/01 08:37:49;;;;;;;2.78;0.40;;;4.40;99.90;;;;;;5156552;27;20895;-58
2022/02/01 08:40:16;;;;;;;4.82;0.40;;;4.20;1.00;;;;;;5152212;27;20460;-59
2022/02/01 08:42:44;;;;;;;2.10;0.50;;;4.40;1.00;;;;;;5152647;27;20631;-59
2022/02/01 08:45:13;;;;;;;1.30;0.30;;;4.40;1.00;;;;;;5140286;27;20505;-58
2022/02/01 08:47:41;;;;;;;2.10;0.40;;;4.60;99.90;;;;;;5146697;27;20418;-58
2022/02/01 08:50:09;;;;;;;3.00;0.40;;;4.70;1.00;;;;;;5135827;27;20414;-59
2022/02/01 08:52:40;;;;;;;1.48;0.40;;;5.30;99.90;;;;;;5146053;27;20512;-58
2022/02/01 08:55:18;;;;;;;1.48;0.40;;;5.30;20.70;;;;;;5150367;27;20420;-57
2022/02/01 08:57:45;;;;;;;1.00;0.40;;;5.00;1.00;;;;;;5156420;27;20855;-58
2022/02/01 09:00:17;;;;;;;1.70;0.47;;;4.90;1.00;;;;;;5149180;27;20555;-59
2022/02/01 09:02:46;;;;;;;1.90;0.50;;;4.90;1.00;;;;;;5152676;27;20452;-58
2022/02/01 09:05:13;;;;;;;1.20;0.40;;;4.70;1.00;;;;;;5136910;27;20419;-59
2022/02/01 09:07:40;;;;;;;0.98;0.40;;;5.00;99.90;;;;;;5152977;27;20419;-59
2022/02/01 09:10:08;;;;;;;2.50;0.40;;;5.00;1.00;;;;;;5155737;27;20417;-58
2022/02/01 09:12:35;;;;;;;1.17;0.50;;;5.10;99.90;;;;;;5143853;27;20499;-57
2022/02/01 09:15:03;;;;;;;3.42;0.50;;;5.10;1.00;;;;;;5150606;27;20422;-58
2022/02/01 09:17:34;;;;;;;1.23;0.40;;;5.10;1.00;;;;;;5136885;27;20426;-58
2022/02/01 09:20:01;;;;;;;1.40;0.40;;;5.20;1.00;;;;;;5136635;27;20475;-56
2022/02/01 09:22:28;;;;;;;2.30;0.40;;;5.10;99.90;;;;;;5152662;27;20739;-57
2022/02/01 09:24:57;;;;;;;1.50;0.40;;;5.30;1.00;;;;;;5148465;27;20488;-58
2022/02/01 09:27:26;;;;;;;1.10;0.40;;;5.50;1.00;;;;;;5155489;27;20447;-58
2022/02/01 09:29:53;;;;;;;0.90;0.30;;;5.70;99.90;;;;;;5145851;27;20428;-59
2022/02/01 09:32:21;;;;;;;0.90;0.40;;;5.50;99.90;;;;;;5146895;27;20698;-57
2022/02/01 09:34:50;;;;;;;2.70;0.40;;;5.70;99.90;;;;;;5147187;27;20625;-57
2022/02/01 09:37:16;;;;;;;2.85;0.40;;;5.70;99.90;;;;;;5141623;27;20711;-56
2022/02/01 09:39:44;;;;;;;1.50;0.40;;;5.60;99.90;;;;;;5137160;27;20405;-58
2022/02/01 09:42:11;;;;;;;4.70;0.43;;;5.50;1.00;;;;;;5139904;27;20435;-60
2022/02/01 09:44:38;;;;;;;1.30;0.40;;;5.50;1.00;;;;;;5153790;27;20409;-58
2022/02/01 09:47:05;;;;;;;1.20;0.33;;;5.10;99.90;;;;;;5153503;27;20516;-56
2022/02/01 09:49:32;;;;;;;1.30;0.30;;;4.90;46.00;;;;;;5143591;27;20755;-58
2022/02/01 09:52:11;;;;;;;2.83;0.40;;;5.10;99.90;;;;;;5134900;27;20714;-56
2022/02/01 09:54:39;;;;;;;3.20;0.40;;;5.30;1.00;;;;;;5136674;27;20427;-61
2022/02/01 09:57:10;;;;;;;1.90;0.40;;;5.50;1.00;;;;;;5151608;27;20443;-59
2022/02/01 09:59:41;;;;;;;1.17;0.30;;;5.40;1.00;;;;;;5145359;27;20773;-58
2022/02/01 10:02:12;;;;;;;0.93;0.40;;;5.30;33.20;;;;;;5142957;27;20522;-59
2022/02/01 10:04:42;;;;;;;1.35;0.38;;;5.50;1.00;;;;;;5151174;27;20504;-56
2022/02/01 10:07:13;;;;;;;1.90;0.30;;;5.70;99.90;;;;;;5140973;27;20495;-59
2022/02/01 10:09:51;;;;;;;0.60;0.30;;;5.60;99.90;;;;;;5143516;27;20427;-58
2022/02/01 10:12:18;;;;;;;1.88;0.43;;;5.80;99.90;;;;;;5145848;27;20496;-58
2022/02/01 10:14:52;;;;;;;1.67;0.40;;;5.70;99.90;;;;;;5134678;27;20509;-57
2022/02/01 10:17:30;;;;;;;0.90;0.32;;;5.90;1.00;;;;;;5132915;27;20602;-56
2022/02/01 10:19:57;;;;;;;0.70;0.40;;;5.50;99.90;;;;;;5134198;27;20414;-60
2022/02/01 10:22:33;;;;;;;0.90;0.40;;;5.50;99.90;;;;;;5135314;27;20914;-58
2022/02/01 10:25:03;;;;;;;1.73;0.30;;;5.40;13.60;;;;;;5134364;27;20898;-58
2022/02/01 10:27:31;;;;;;;0.80;0.40;;;5.30;1.00;;;;;;5134109;27;20419;-58
2022/02/01 10:30:04;;;;;;;1.50;0.30;;;5.30;1.00;;;;;;5133530;27;20411;-59
2022/02/01 10:32:45;;;;;;;1.70;0.40;;;5.10;1.00;;;;;;5134820;27;20422;-58
2022/02/01 10:35:24;;;;;;;2.50;0.50;;;5.30;1.00;;;;;;5135125;27;20419;-59
2022/02/01 10:38:02;;;;;;;2.07;0.40;;;5.60;95.90;;;;;;5134096;27;20430;-58
2022/02/01 10:40:44;;;;;;;0.80;0.40;;;5.60;1.00;;;;;;5133619;27;20526;-58
2022/02/01 10:43:19;;;;;;;1.10;0.20;;;5.60;99.90;;;;;;5151545;27;20956;-57
2022/02/01 10:45:47;;;;;;;1.67;0.30;;;5.60;1.00;;;;;;5154031;27;20423;-58
2022/02/01 10:48:15;;;;;;;1.90;0.40;;;5.60;99.90;;;;;;5154338;27;20847;-57
2022/02/01 10:50:43;;;;;;;2.15;0.40;;;5.50;1.00;;;;;;5153979;27;20516;-59
2022/02/01 10:53:21;;;;;;;0.90;0.50;;;5.60;99.90;;;;;;5154465;27;20505;-58
2022/02/01 10:55:49;;;;;;;0.68;0.40;;;5.80;1.00;;;;;;5149169;27;20512;-57
2022/02/01 10:58:17;;;;;;;1.77;0.30;;;5.90;1.00;;;;;;5151877;27;20492;-57
2022/02/01 11:00:47;;;;;;;1.20;0.30;;;5.60;1.00;;;;;;5124564;27;20425;-59
2022/02/01 11:03:18;;;;;;;2.50;0.30;;;5.80;1.00;;;;;;5136515;27;20445;-55
2022/02/01 11:05:49;;;;;;;2.65;0.30;;;5.80;1.00;;;;;;5152031;27;20555;-56
2022/02/01 11:08:17;;;;;;;3.50;0.40;;;6.00;1.00;;;;;;5150191;27;20885;-58
2022/02/01 11:10:47;;;;;;;2.03;0.30;;;6.10;1.00;;;;;;5150502;27;20758;-58
2022/02/01 11:13:14;;;;;;;1.42;0.40;;;5.90;99.90;;;;;;5146776;27;20787;-57
2022/02/01 11:15:55;;;;;;;0.80;0.30;;;5.80;99.90;;;;;;5149046;27;20413;-57
2022/02/01 11:18:26;;;;;;;1.70;0.40;;;5.80;1.00;;;;;;5140824;27;20851;-58
2022/02/01 11:20:55;;;;;;;1.80;0.50;;;5.80;99.90;;;;;;5133247;27;20445;-58
2022/02/01 11:23:24;;;;;;;0.75;0.40;;;6.10;1.00;;;;;;5151695;27;20485;-57
2022/02/01 11:25:57;;;;;;;0.93;0.30;;;5.90;99.90;;;;;;5150793;27;20445;-57
2022/02/01 11:28:38;;;;;;;0.77;0.40;;;5.70;99.90;;;;;;5151715;27;20416;-58
2022/02/01 11:31:06;;;;;;;1.05;0.32;;;5.90;99.90;;;;;;5150767;27;20421;-58
2022/02/01 11:33:41;;;;;;;1.17;0.40;;;5.80;99.90;;;;;;5148420;27;20672;-58
2022/02/01 11:36:09;;;;;;;2.20;0.30;;;5.80;1.00;;;;;;5140137;27;20859;-57
2022/02/01 11:38:37;;;;;;;2.20;0.40;;;5.80;99.90;;;;;;5150292;27;20521;-58
2022/02/01 11:41:10;;;;;;;1.30;0.37;;;6.10;69.30;;;;;;5141680;27;20517;-58
2022/02/01 11:43:40;;;;;;;1.75;0.40;;;6.40;1.00;;;;;;5129693;27;20428;-56
2022/02/01 11:46:09;;;;;;;1.05;0.30;;;6.20;45.80;;;;;;5137334;27;20413;-57
2022/02/01 11:48:39;;;;;;;1.25;0.30;;;6.20;99.90;;;;;;5151309;27;20454;-57
2022/02/01 11:51:09;;;;;;;1.80;0.40;;;5.90;63.30;;;;;;5153946;27;20507;-56
2022/02/01 11:53:43;;;;;;;1.50;0.50;;;5.60;1.00;;;;;;5151990;27;21718;-56
2022/02/01 11:56:17;;;;;;;0.50;0.30;;;5.40;1.00;;;;;;5133353;27;20434;-54
2022/02/01 11:58:46;;;;;;;1.98;0.40;;;5.20;99.90;;;;;;5137083;27;20429;-57
2022/02/01 12:01:23;;;;;;;1.00;0.30;;;5.30;1.00;;;;;;5130427;28;20414;-57
2022/02/01 12:04:01;;;;;;;1.70;0.30;;;5.20;99.90;;;;;;5133999;27;20471;-57
2022/02/01 12:06:38;;;;;;;1.00;0.30;;;5.20;1.00;;;;;;5141518;27;20445;-57
2022/02/01 12:09:11;;;;;;;1.90;0.50;;;5.20;81.30;;;;;;5148195;27;20433;-58
2022/02/01 12:11:41;;;;;;;0.80;0.40;;;5.20;1.00;;;;;;5151751;27;20501;-58
2022/02/01 12:14:08;;;;;;;1.50;0.43;;;5.10;99.90;;;;;;5143097;27;20424;-58
2022/02/01 12:16:36;;;;;;;1.20;0.40;;;5.30;22.80;;;;;;5142497;27;20805;-58
2022/02/01 12:19:06;;;;;;;2.65;0.30;;;5.30;1.00;;;;;;5144028;27;20421;-58
2022/02/01 12:21:45;;;;;;;1.23;0.30;;;5.10;1.00;;;;;;5154552;27;20713;-58
2022/02/01 12:24:14;;;;;;;1.20;0.40;;;5.00;99.90;;;;;;5155315;27;20515;-59
2022/02/01 12:26:45;;;;;;;0.98;0.30;;;5.10;1.00;;;;;;5153321;27;20409;-59
2022/02/01 12:29:14;;;;;;;0.88;0.30;;;5.00;1.00;;;;;;5151955;27;20428;-59
2022/02/01 12:31:42;;;;;;;0.70;0.22;;;5.10;1.00;;;;;;5150392;27;20421;-59
2022/02/01 12:34:13;;;;;;;1.87;0.40;;;5.00;1.00;;;;;;5151396;27;20477;-59
2022/02/01 12:36:42;;;;;;;0.60;0.30;;;5.00;1.00;;;;;;5152033;27;20413;-59
2022/02/01 12:39:14;;;;;;;1.23;0.40;;;5.00;1.00;;;;;;5152399;27;20425;-59
2022/02/01 12:41:44;;;;;;;0.60;0.30;;;5.30;99.90;;;;;;5152130;27;20447;-59
2022/02/01 12:46:59;;;;;;;1.00;0.30;;;5.10;1.00;;;;;;5151075;27;20388;-59
2022/02/01 12:49:38;;;;;;;1.35;0.30;;;5.20;99.90;;;;;;5151201;27;20408;-59
2022/02/01 12:52:06;;;;;;;1.20;0.20;;;5.10;99.90;;;;;;5151440;27;20413;-60
2022/02/01 12:54:37;;;;;;;0.70;0.20;;;5.20;99.90;;;;;;5155641;27;20500;-59
2022/02/01 12:57:08;;;;;;;0.80;0.30;;;5.20;99.90;;;;;;5156853;27;20470;-58
2022/02/01 12:59:40;;;;;;;1.30;0.30;;;5.00;99.90;;;;;;5154419;27;20506;-57
2022/02/01 13:02:08;;;;;;;0.90;0.30;;;5.00;1.00;;;;;;5153823;27;20828;-57
2022/02/01 13:04:36;;;;;;;0.50;0.30;;;5.10;1.00;;;;;;5155553;27;20409;-59
2022/02/01 13:07:12;;;;;;;0.80;0.30;;;5.10;1.00;;;;;;5155092;27;20532;-58
2022/02/01 13:15:25;;;;;;;1.10;0.20;;;5.10;1.00;;;;;;5155532;27;20396;-58
2022/02/01 13:18:11;;;;;;;0.90;0.30;;;5.10;1.00;;;;;;5155445;27;20542;-58
2022/02/01 13:20:41;;;;;;;1.50;0.30;;;5.10;59.80;;;;;;5154877;27;20417;-58
2022/02/01 13:23:08;;;;;;;0.50;0.20;;;5.20;1.00;;;;;;5154954;27;20424;-58
2022/02/01 13:25:38;;;;;;;0.60;0.20;;;5.20;1.00;;;;;;5155442;27;20444;-58
2022/02/01 13:28:10;;;;;;;0.50;0.30;;;5.30;1.00;;;;;;5154525;27;20811;-60
2022/02/01 13:30:40;;;;;;;0.68;0.38;;;5.30;99.90;;;;;;5156247;27;20396;-58
2022/02/01 13:33:09;;;;;;;0.70;0.50;;;5.30;99.90;;;;;;5156557;27;20425;-57
2022/02/01 13:35:53;;;;;;;1.20;0.30;;;5.10;99.90;;;;;;5156111;27;20514;-57
2022/02/01 13:38:24;;;;;;;1.60;0.30;;;5.00;1.00;;;;;;5154379;27;20424;-58
2022/02/01 13:40:53;;;;;;;0.50;0.30;;;5.00;1.00;;;;;;5153513;27;20523;-58
2022/02/01 13:43:25;;;;;;;0.77;0.20;;;4.90;99.90;;;;;;5153585;27;20417;-58
2022/02/01 13:45:54;;;;;;;1.33;0.30;;;4.80;5.30;;;;;;5155617;27;20845;-59
2022/02/01 13:48:23;;;;;;;0.68;0.20;;;4.90;99.90;;;;;;5155367;27;20512;-61
2022/02/01 13:50:50;;;;;;;1.10;0.70;;;5.10;99.90;;;;;;5156078;27;20463;-60
2022/02/01 13:53:18;;;;;;;0.50;0.30;;;5.10;1.00;;;;;;5154460;27;20833;-59
2022/02/01 13:55:46;;;;;;;0.40;0.20;;;5.00;1.00;;;;;;5156682;27;20876;-58
2022/02/01 13:58:17;;;;;;;3.05;0.40;;;4.80;1.00;;;;;;5156378;27;20445;-57
2022/02/01 14:00:48;;;;;;;0.60;0.30;;;4.70;99.90;;;;;;5155997;27;20823;-56
2022/02/01 14:03:30;;;;;;;0.40;0.20;;;4.70;99.90;;;;;;5155051;27;20481;-58
2022/02/01 14:06:09;;;;;;;1.30;0.40;;;4.70;1.00;;;;;;5156869;27;20514;-58
2022/02/01 14:08:44;;;;;;;1.27;0.30;;;4.50;1.00;;;;;;5156048;27;20861;-58
2022/02/01 14:11:41;;;;;;;0.70;0.30;;;4.40;1.00;;;;;;5150587;27;20769;-57
2022/02/01 14:14:33;;;;;;;1.90;0.40;;;4.50;99.90;;;;;;5152470;27;20416;-58
2022/02/01 14:28:09;;;;;;;1.05;0.40;;;4.20;99.90;;;;;;5153419;27;20400;-58
2022/02/01 14:33:43;;;;;;;1.10;0.40;;;4.10;1.00;;;;;;5155905;27;20855;-58